Scroll down
FLIGHT INFORMATION
American Airlines

AAL228

At Arrival Gate

SEQM
 KATL
DATE: 2021-02-28
GATE:  -
GATE DEPARTURE: 15:46
TAKEOFF: 15:57
DATE: 2021-02-28
GATE:  -
LANDING: 20:46
GATE ARRIVAL: 20:51
FLIGHT DATA
Crew: 
Speed: 
491 kts
Altitude: 
40,043 ft
Stage Length: 
2,055.8 nm
Block Time: 
5 hrs
Flight Time: 
4.8 hrs
Fuel Used: 
65,738 lb
Cleared Route: SEQM QM021 NEGAL ENSOL TCO TOKUT MILAT TBG ARNAL EMASA GCM ATUVI UCL XOPLI IKBIX PEAKY GOPEY LINEY FOBIN EBAYY MALET FORNI OAKIE SMYRA MIKBE OMN JODAB BULLI ASTOR BUNDE CRG KATL
TRACK DATA
50,000 ft 1,000 kts
AIRCRAFT INFO AND CUMULATIVE STATS
Aircraft Type: 
B772
Registration: 
SELCAL: 
LPRS
MSN/LN: 
29578 / 185
Operator: 
Total Flights: 
2
Total Block Time: 
10.1 hrs
Total Flight Time: 
9.8 hrs
Total Fuel Time: 
135,335 lb
DATALINK LOG | Newest first | Current as of: 2021-05-19 00:29:56
LABEL SEQUENCE CONTENT Dn/Up
QD062620:51 15▼ Dn
QC022220:46▼ Dn
2U3256KATL 281752Z 21015G21KT 10SM BKN036 BKN250 24/14 A3013 RMK AO2 PK WND 20028/1733 SLP196 T02390144 10239 20133 58017▲ Up
2S3313KATL▼ Dn
QB585115:57▼ Dn
QA474015:46 80.9▼ Dn
2U3513SEQM 281500Z 33002KT 9999 SCT026 SCT300 18/11 Q1025 NOSIG RMK A3026▲ Up
2S3630SEQM▼ Dn
A31924CLEARED TO KATL VIA NEGA2A NEGAL UM674 TBG UL465 GCM UG448 IKBIX Y183 PEAKY Q87 GOPEY Y262 LINEY Q93 MALET V3 OMN V51 CRG SINCA6. SQUAWK 7076.▲ Up
Q01812[LINK ACK]▲ Up
Q01812[LINK TEST]▼ Dn


AIRCRAFT HISTORY
FLIGHT DATE FLIGHT NO. ORIGIN DESTINATION CLEARED ROUTE BLOCK TIME FLIGHT TIME FUEL USED PILOT
2021-02-28AAL228SEQM KATL SEQM QM021 NEGAL ENSOL TCO TOKUT MILAT TBG ARNAL EMASA GCM ATUVI UCL XOPLI IKBIX PEAKY GOPEY LINEY FOBIN EBAYY MALET FORNI OAKIE SMYRA MIKBE OMN JODAB BULLI ASTOR BUNDE CRG KATL5 hrs4.8 hrs65,738 lbMarc Ehnle
2021-02-10AAL210KDFW SEQM KDFW MECHL BORDD JYMME OWLLS SKTRR DARTZ BRDEN TORNN BILEE SBI ANKRR RUMMM PEGLG DUTNA MAPUM BETAS OMVOM IGSAR IKLEK KEVRO MARID MURBU ANIKO URVIL PUSEM FALLA SPP MORLI TBG MILAT TOKUT TCO ENSOL NEGAL QIT SEQM5.1 hrs5 hrs69,598 lbMichael Roth